ADDS METAR Data

Data at: 0505 UTC 20 Apr 2018

METAR for:KUUU (Newport State Arpt, RI, US)
Text:KUUU 200453Z AUTO 31014KT 10SM FEW030 BKN050 OVC070 04/M01 A2987 RMK AO2 SLP115 T00391006 400670039
Temperature: 3.9°C ( 39°F)
Dewpoint: -0.6°C ( 31°F) [RH = 72%]
Pressure (altimeter):29.87 inches Hg (1011.6 mb) [Sea level pressure: 1011.5 mb]
Winds:from the NW (310 degrees) at 16 MPH (14 knots; 7.2 m/s)
Visibility:10 or more sm (16+ km)
Ceiling:5000 feet AGL
Clouds: few clouds at 3000 feet AGL, broken clouds at 5000 feet AGL, overcast cloud deck at 7000 feet AGL
QC Flag:automated observation with no human augmentation